Time;durP1;ratioP1;P1;durP2;ratioP2;P2;SDS_P1;SDS_P2;PMS_P1;PMS_P2;Temp;Humidity;BMP_temperature;BMP_pressure;BME280_temperature;BME280_humidity;BME280_pressure;Samples;Min_cycle;Max_cycle;Signal;HPM_P1;HPM_P2
2023/03/05 00:01:21;;;;;;;;;24.00;20.00;;;;;0.30;87.30;98100.56;4800434;29;104050;-67
2023/03/05 00:03:51;;;;;;;;;26.33;20.00;;;;;0.18;86.70;98091.94;4798129;29;102150;-67
2023/03/05 00:06:22;;;;;;;;;19.67;19.00;;;;;0.23;86.89;98095.00;4800254;29;102075;-66
2023/03/05 00:08:50;;;;;;;;;24.00;16.67;;;;;0.29;87.05;98104.22;4800332;29;101954;-66
2023/03/05 00:11:18;;;;;;;;;14.67;13.00;;;;;0.32;86.72;98101.25;4801207;29;104024;-67
2023/03/05 00:13:45;;;;;;;;;18.33;16.00;;;;;0.27;87.37;98107.00;4801409;29;102380;-67
2023/03/05 00:16:14;;;;;;;;;20.00;18.33;;;;;0.20;87.08;98099.78;4799868;29;102474;-67
2023/03/05 00:18:43;;;;;;;;;16.67;14.00;;;;;0.29;87.37;98104.22;4801358;29;102415;-66
2023/03/05 00:21:22;;;;;;;;;25.33;22.67;;;;;0.18;87.43;98105.25;4798679;29;103979;-67
2023/03/05 00:23:50;;;;;;;;;23.00;17.00;;;;;0.26;87.54;98104.53;4799602;29;102354;-68
2023/03/05 00:26:23;;;;;;;;;19.00;16.00;;;;;0.21;87.52;98093.50;4800212;29;102036;-66
2023/03/05 00:28:51;;;;;;;;;19.67;18.33;;;;;-0.04;88.30;98065.78;4802258;29;103143;-67
2023/03/05 00:31:24;;;;;;;;;16.33;15.33;;;;;0.09;83.16;98094.69;4799129;29;103979;-67
2023/03/05 00:33:53;;;;;;;;;13.00;10.67;;;;;-0.10;78.25;98074.34;4799699;29;102249;-66
2023/03/05 00:36:20;;;;;;;;;11.67;11.33;;;;;0.05;77.33;98095.94;4801227;29;102073;-66
2023/03/05 00:38:47;;;;;;;;;17.33;15.67;;;;;0.01;77.68;98092.75;4801260;29;102307;-67
2023/03/05 00:41:15;;;;;;;;;12.67;10.00;;;;;-0.02;73.32;98087.72;4800073;29;103989;-67
2023/03/05 00:43:42;;;;;;;;;16.33;11.00;;;;;-0.05;72.32;98085.38;4800736;29;102312;-68
2023/03/05 00:46:09;;;;;;;;;8.00;6.00;;;;;-0.12;68.33;98079.81;4800921;29;103280;-68
2023/03/05 00:48:36;;;;;;;;;7.00;6.33;;;;;-0.12;71.74;98076.31;4802241;29;102306;-68
2023/03/05 00:51:03;;;;;;;;;8.00;7.67;;;;;-0.16;72.20;98072.28;4802315;29;103710;-67
2023/03/05 00:53:30;;;;;;;;;6.00;6.00;;;;;-0.21;70.19;98069.22;4800666;29;102316;-68
2023/03/05 00:55:58;;;;;;;;;4.00;2.00;;;;;-0.20;68.33;98076.22;4800765;29;102145;-66
2023/03/05 00:58:25;;;;;;;;;4.00;4.00;;;;;-0.24;69.18;98073.03;4798664;29;103205;-66
2023/03/05 01:00:52;;;;;;;;;6.00;5.00;;;;;-0.29;68.57;98072.63;4798214;29;103639;-67
2023/03/05 01:03:19;;;;;;;;;5.00;5.00;;;;;-0.22;68.75;98065.72;4800915;28;102264;-67
2023/03/05 01:05:45;;;;;;;;;8.67;4.33;;;;;-0.19;70.03;98072.56;4801752;29;102128;-67
2023/03/05 01:08:13;;;;;;;;;4.00;2.00;;;;;-0.28;69.28;98062.84;4804557;29;102397;-67
2023/03/05 01:10:39;;;;;;;;;4.33;3.33;;;;;-0.19;70.19;98068.09;4799490;29;103990;-67
2023/03/05 01:13:07;;;;;;;;;2.00;2.00;;;;;-0.18;70.32;98072.41;4800925;29;102354;-68
2023/03/05 01:15:34;;;;;;;;;4.00;4.00;;;;;-0.23;69.93;98069.38;4805191;29;102308;-67
2023/03/05 01:18:01;;;;;;;;;4.00;2.00;;;;;-0.23;71.23;98061.41;4806763;29;102399;-66
2023/03/05 01:20:28;;;;;;;;;3.33;3.33;;;;;-0.20;71.05;98066.44;4804271;29;103504;-67
2023/03/05 01:22:57;;;;;;;;;4.75;4.00;;;;;-0.24;71.46;98070.38;4801776;29;106459;-66
2023/03/05 01:25:25;;;;;;;;;6.67;4.67;;;;;-0.30;69.72;98065.63;4802355;29;102107;-67
2023/03/05 01:27:52;;;;;;;;;5.00;5.00;;;;;-0.27;70.08;98059.19;4803234;29;102063;-67
2023/03/05 01:30:19;;;;;;;;;5.00;4.00;;;;;-0.27;70.06;98054.69;4801593;29;104010;-66
2023/03/05 01:32:47;;;;;;;;;12.00;6.00;;;;;-0.37;65.14;98063.72;4803894;29;102300;-66
2023/03/05 01:35:21;;;;;;;;;8.33;5.00;;;;;-0.34;67.27;98066.91;4801585;29;101976;-67
2023/03/05 01:37:49;;;;;;;;;6.33;4.67;;;;;-0.33;65.19;98060.63;4804026;29;102336;-67
2023/03/05 01:40:19;;;;;;;;;3.33;3.33;;;;;-0.31;65.08;98052.47;4803769;29;103989;-67
2023/03/05 01:42:54;;;;;;;;;2.50;1.25;;;;;-0.27;66.06;98060.00;4802703;29;102450;-67
2023/03/05 01:45:21;;;;;;;;;1.50;1.00;;;;;-0.21;65.11;98066.56;4800967;29;102147;-66
2023/03/05 01:47:48;;;;;;;;;3.67;2.00;;;;;-0.24;64.49;98053.59;4804913;29;102366;-67
2023/03/05 01:50:21;;;;;;;;;3.33;3.33;;;;;-0.28;64.88;98060.19;4803163;29;103978;-67
2023/03/05 01:52:57;;;;;;;;;2.00;1.25;;;;;-0.31;64.58;98060.44;4799998;29;102116;-67
2023/03/05 01:55:28;;;;;;;;;0.00;0.00;;;;;-0.25;65.48;98052.75;4803056;29;102230;-67
2023/03/05 01:58:00;;;;;;;;;1.00;1.00;;;;;-0.19;66.43;98056.63;4802646;29;102410;-67
2023/03/05 02:00:33;;;;;;;;;1.00;0.25;;;;;-0.15;67.13;98042.91;4795638;29;104005;-67
2023/03/05 02:03:08;;;;;;;;;0.00;0.00;;;;;-0.14;68.08;98041.94;4809065;28;102175;-67
2023/03/05 02:05:37;;;;;;;;;0.00;0.00;;;;;-0.12;67.92;98052.41;4798838;29;102512;-67
2023/03/05 02:08:17;;;;;;;;;0.00;0.00;;;;;-0.14;63.58;98038.44;4793438;29;102365;-66
2023/03/05 02:11:10;;;;;;;;;0.00;0.00;;;;;-0.20;62.41;98034.53;4799209;29;107703;-67
2023/03/05 02:13:55;;;;;;;;;0.00;0.00;;;;;-0.20;64.81;98039.84;4798059;29;102011;-67
2023/03/05 02:16:44;;;;;;;;;0.50;0.50;;;;;-0.21;62.92;98047.97;4799269;29;102141;-67
2023/03/05 02:19:29;;;;;;;;;0.00;0.00;;;;;-0.24;64.92;98035.81;4799733;29;102330;-67
2023/03/05 02:22:24;;;;;;;;;0.00;0.00;;;;;-0.26;64.93;98037.78;4799583;29;107730;-66
2023/03/05 02:24:58;;;;;;;;;0.00;0.00;;;;;-0.22;64.79;98040.97;4798989;29;103049;-66
2023/03/05 02:27:33;;;;;;;;;0.00;0.00;;;;;-0.19;66.65;98024.75;4800947;29;102056;-66
2023/03/05 02:30:01;;;;;;;;;0.00;0.00;;;;;-0.20;67.04;98023.09;4803920;29;102565;-67
2023/03/05 02:32:28;;;;;;;;;0.00;0.00;;;;;-0.29;66.51;98024.81;4799154;29;103931;-67
2023/03/05 02:34:55;;;;;;;;;0.25;0.00;;;;;-0.31;66.69;98024.09;4801902;28;102376;-67
2023/03/05 02:37:22;;;;;;;;;0.00;0.00;;;;;-0.28;68.04;98021.16;4797211;29;102018;-67
2023/03/05 02:39:49;;;;;;;;;0.00;0.00;;;;;-0.24;68.15;98022.53;4801353;29;102031;-67
2023/03/05 02:42:16;;;;;;;;;0.00;0.00;;;;;-0.23;69.08;98018.91;4799044;29;104028;-67
2023/03/05 02:44:43;;;;;;;;;0.00;0.00;;;;;-0.23;70.40;98016.25;4797806;29;102509;-67
2023/03/05 02:47:10;;;;;;;;;0.00;0.00;;;;;-0.29;70.36;98021.31;4799588;29;101853;-67
2023/03/05 02:49:37;;;;;;;;;1.00;0.00;;;;;-0.42;69.73;97995.09;4801343;29;102960;-68
2023/03/05 02:52:04;;;;;;;;;0.00;0.00;;;;;-0.29;69.81;98008.03;4800740;29;104280;-66
2023/03/05 02:54:31;;;;;;;;;0.00;0.00;;;;;-0.31;68.91;98008.16;4800458;29;102528;-66
2023/03/05 02:56:58;;;;;;;;;0.00;0.00;;;;;-0.30;69.92;98015.16;4798326;29;101973;-66
2023/03/05 02:59:25;;;;;;;;;0.00;0.00;;;;;-0.29;68.84;98008.88;4797707;29;102139;-66
2023/03/05 03:01:52;;;;;;;;;0.00;0.00;;;;;-0.28;70.55;98013.22;4799044;29;104208;-66
2023/03/05 03:04:19;;;;;;;;;0.00;0.00;;;;;-0.32;71.48;98013.66;4800064;29;102050;-67
2023/03/05 03:06:46;;;;;;;;;6.00;5.00;;;;;-0.39;69.00;98029.31;4799444;29;101984;-67
2023/03/05 03:09:13;;;;;;;;;7.00;4.67;;;;;-0.43;68.93;98019.13;4809174;29;102336;-67
2023/03/05 03:11:40;;;;;;;;;9.00;6.67;;;;;-0.46;69.03;98017.63;4799775;29;104026;-67
2023/03/05 03:14:06;;;;;;;;;5.00;5.00;;;;;-0.41;69.71;98015.38;4799796;29;102319;-68
2023/03/05 03:16:33;;;;;;;;;5.67;5.00;;;;;-0.39;69.32;98013.38;4804321;29;102276;-67
2023/03/05 03:19:00;;;;;;;;;9.67;8.00;;;;;-0.48;69.18;98009.78;4803335;29;102527;-67
2023/03/05 03:21:28;;;;;;;;;9.67;8.00;;;;;-0.36;69.58;98005.09;4800137;29;103618;-66
2023/03/05 03:23:54;;;;;;;;;3.33;3.33;;;;;-0.33;69.37;98006.66;4786068;29;102574;-65
2023/03/05 03:26:21;;;;;;;;;4.00;4.00;;;;;-0.34;69.83;97983.72;4801288;29;102287;-65
2023/03/05 03:28:49;;;;;;;;;5.33;2.67;;;;;-0.32;70.38;97993.25;4801019;29;103037;-66
2023/03/05 03:31:16;;;;;;;;;2.00;2.00;;;;;-0.30;71.16;97993.06;4801217;29;103928;-66
2023/03/05 03:33:44;;;;;;;;;2.67;1.33;;;;;-0.30;71.88;97996.56;4801532;29;103228;-66
2023/03/05 03:36:11;;;;;;;;;2.00;1.33;;;;;-0.30;70.84;97991.25;4799505;29;101980;-67
2023/03/05 03:38:38;;;;;;;;;2.00;2.00;;;;;-0.29;71.19;98000.91;4800349;29;102452;-67
2023/03/05 03:41:06;;;;;;;;;2.00;2.00;;;;;-0.29;69.73;98006.22;4801705;29;104006;-67
2023/03/05 03:43:37;;;;;;;;;4.67;4.33;;;;;-0.30;71.08;97993.06;4801070;29;102337;-67
2023/03/05 03:46:06;;;;;;;;;1.00;1.00;;;;;-0.31;71.67;97992.22;4801202;29;102546;-67
2023/03/05 03:48:34;;;;;;;;;5.67;2.67;;;;;-0.29;72.04;97997.41;4802105;29;102443;-67
2023/03/05 03:51:06;;;;;;;;;4.75;4.00;;;;;-0.31;71.41;97992.22;4799967;29;108750;-66
2023/03/05 03:53:34;;;;;;;;;2.00;2.00;;;;;-0.29;70.76;97990.28;4801055;29;102377;-66
2023/03/05 03:56:03;;;;;;;;;1.00;1.00;;;;;-0.27;70.96;97990.94;4801024;29;102390;-67
2023/03/05 03:58:31;;;;;;;;;6.00;4.67;;;;;-0.56;71.77;97942.47;4799820;29;102043;-66
2023/03/05 04:00:58;;;;;;;;;5.67;1.67;;;;;-0.29;71.88;97984.97;4798665;29;105192;-67
2023/03/05 04:03:25;;;;;;;;;4.67;4.67;;;;;-0.30;71.61;97983.28;4787836;29;102018;-67
2023/03/05 04:05:52;;;;;;;;;4.00;2.00;;;;;-0.30;71.47;97985.94;4798974;29;102661;-68
2023/03/05 04:08:19;;;;;;;;;3.33;2.00;;;;;-0.30;70.33;97993.91;4801867;29;102330;-67
2023/03/05 04:10:46;;;;;;;;;2.00;1.00;;;;;-0.30;69.26;97975.31;4798885;29;104135;-66
2023/03/05 04:13:13;;;;;;;;;1.00;1.00;;;;;-0.28;69.52;97976.03;4799058;29;102387;-66
2023/03/05 04:15:40;;;;;;;;;1.00;0.00;;;;;-0.28;70.02;97977.84;4798432;29;102216;-66
2023/03/05 04:18:08;;;;;;;;;2.67;2.00;;;;;-0.33;69.86;97980.94;4801724;29;102135;-66
2023/03/05 04:20:35;;;;;;;;;4.25;2.00;;;;;-0.42;71.68;97971.19;4802030;29;104001;-66
2023/03/05 04:23:02;;;;;;;;;0.75;0.75;;;;;-0.38;71.22;97971.72;4802240;29;102247;-66
2023/03/05 04:25:29;;;;;;;;;1.25;1.00;;;;;-0.37;71.43;97960.97;4799763;29;102109;-66
2023/03/05 04:27:56;;;;;;;;;1.00;1.00;;;;;-0.36;70.74;97967.13;4800947;29;103070;-66
2023/03/05 04:30:23;;;;;;;;;1.00;1.00;;;;;-0.36;71.78;97965.28;4800834;29;104012;-66
2023/03/05 04:32:50;;;;;;;;;1.00;1.00;;;;;-0.35;70.43;97961.63;4800636;29;102153;-66
2023/03/05 04:35:17;;;;;;;;;1.25;1.25;;;;;-0.32;70.69;97955.22;4798754;29;102315;-67
2023/03/05 04:37:44;;;;;;;;;0.25;0.25;;;;;-0.33;71.36;97943.75;4800902;29;103966;-65
2023/03/05 04:40:12;;;;;;;;;1.00;1.00;;;;;-0.33;70.89;97948.22;4799751;29;104072;-66
2023/03/05 04:42:39;;;;;;;;;1.00;0.25;;;;;-0.33;71.03;97945.56;4800629;29;102388;-67
2023/03/05 04:45:07;;;;;;;;;1.00;1.00;;;;;-0.33;71.63;97938.44;4803987;29;102268;-67
2023/03/05 04:47:34;;;;;;;;;0.33;0.33;;;;;-0.36;73.38;97938.72;4794117;29;103347;-66
2023/03/05 04:50:03;;;;;;;;;1.00;1.00;;;;;-0.37;73.94;97926.44;4801811;29;104020;-66
2023/03/05 04:52:30;;;;;;;;;2.00;1.00;;;;;-0.51;74.11;97908.34;4802325;29;102439;-65
2023/03/05 04:54:57;;;;;;;;;1.00;1.00;;;;;-0.37;73.98;97925.59;4803856;29;102301;-66
2023/03/05 04:57:24;;;;;;;;;0.25;0.00;;;;;-0.37;74.22;97930.91;4818930;28;102265;-66
2023/03/05 04:59:51;;;;;;;;;1.33;0.67;;;;;-0.38;74.04;97930.09;4802623;29;103999;-67
2023/03/05 05:02:18;;;;;;;;;1.00;1.00;;;;;-0.44;75.06;97925.34;4804130;29;102284;-68
2023/03/05 05:04:45;;;;;;;;;1.00;1.00;;;;;-0.47;74.29;97920.34;4803040;29;102364;-67
2023/03/05 05:07:12;;;;;;;;;1.00;0.67;;;;;-0.47;74.86;97925.66;4803112;29;101989;-67
2023/03/05 05:09:40;;;;;;;;;0.75;0.00;;;;;-0.46;75.64;97932.66;4802950;29;103998;-67
2023/03/05 05:12:09;;;;;;;;;1.00;0.00;;;;;-0.46;76.07;97937.97;4804272;29;102282;-67
2023/03/05 05:14:36;;;;;;;;;2.00;1.33;;;;;-0.48;77.99;97947.88;4802909;29;102108;-66
2023/03/05 05:17:04;;;;;;;;;5.67;5.00;;;;;-0.59;80.43;97942.78;4805776;29;102143;-65
2023/03/05 05:19:34;;;;;;;;;15.67;12.00;;;;;-0.60;80.85;97944.59;4802557;29;104201;-66
2023/03/05 05:22:01;;;;;;;;;8.00;4.00;;;;;-0.58;81.22;97949.75;4800622;29;102259;-66
2023/03/05 05:24:28;;;;;;;;;10.67;9.33;;;;;-0.64;81.28;97950.34;4804181;29;101921;-66
2023/03/05 05:26:55;;;;;;;;;12.00;9.00;;;;;-0.63;81.35;97952.84;4792512;29;102185;-66
2023/03/05 05:29:22;;;;;;;;;9.00;8.00;;;;;-0.81;81.95;97921.94;4801133;29;105877;-67
2023/03/05 05:31:49;;;;;;;;;8.00;6.33;;;;;-0.57;82.54;97959.38;4803114;29;102340;-68
2023/03/05 05:34:16;;;;;;;;;4.33;2.67;;;;;-0.64;82.49;97945.03;4802032;29;102493;-67
2023/03/05 05:36:43;;;;;;;;;2.00;2.00;;;;;-0.53;82.10;97964.25;4797700;29;102631;-68
2023/03/05 05:39:10;;;;;;;;;6.33;6.33;;;;;-0.54;82.89;97957.25;4796852;29;104021;-68
2023/03/05 05:41:37;;;;;;;;;8.33;4.00;;;;;-0.53;82.74;97958.09;4798013;29;102009;-66
2023/03/05 05:44:04;;;;;;;;;7.33;6.00;;;;;-0.52;83.33;97957.13;4782980;29;102402;-66
2023/03/05 05:46:31;;;;;;;;;8.00;6.33;;;;;-0.49;83.67;97954.16;4804429;29;101997;-66
2023/03/05 05:48:58;;;;;;;;;9.00;6.00;;;;;-0.50;83.74;97947.22;4797655;29;104220;-66
2023/03/05 05:51:25;;;;;;;;;8.33;6.00;;;;;-0.48;83.63;97947.88;4803541;29;102111;-67
2023/03/05 05:53:52;;;;;;;;;6.67;5.00;;;;;-0.47;83.41;97946.91;4802483;29;101930;-67
2023/03/05 05:56:19;;;;;;;;;5.00;5.00;;;;;-0.59;82.74;97922.38;4804146;29;102053;-67
2023/03/05 05:58:47;;;;;;;;;8.00;6.00;;;;;-0.46;82.08;97935.31;4803148;29;104006;-67
2023/03/05 06:01:22;;;;;;;;;6.33;4.00;;;;;-0.44;82.26;97935.97;4801350;29;102421;-67
2023/03/05 06:03:49;;;;;;;;;8.33;6.33;;;;;-0.43;82.18;97944.78;4800423;29;102034;-67
2023/03/05 06:06:20;;;;;;;;;9.00;9.00;;;;;-0.45;81.78;97932.47;4803331;29;102082;-67
2023/03/05 06:08:48;;;;;;;;;21.33;17.00;;;;;-0.55;81.60;97946.81;4795535;29;104029;-67
2023/03/05 06:11:15;;;;;;;;;23.00;16.00;;;;;-0.58;80.63;97939.97;4802436;29;102110;-67
2023/03/05 06:13:46;;;;;;;;;17.00;14.67;;;;;-0.62;81.07;97943.06;4815865;29;102243;-67
2023/03/05 06:16:16;;;;;;;;;22.33;17.00;;;;;-0.67;81.54;97934.69;4802801;29;102858;-67
2023/03/05 06:18:43;;;;;;;;;10.67;10.33;;;;;-0.54;81.89;97936.03;4801439;29;104014;-66
2023/03/05 06:21:13;;;;;;;;;12.33;6.00;;;;;-0.44;81.68;97935.97;4801900;29;102021;-67
2023/03/05 06:23:42;;;;;;;;;7.33;7.33;;;;;-0.35;81.34;97935.09;4798219;29;102361;-67
2023/03/05 06:26:11;;;;;;;;;6.00;5.00;;;;;-0.30;81.00;97927.50;4802971;29;102346;-67
2023/03/05 06:28:38;;;;;;;;;6.00;5.00;;;;;-0.32;79.24;97937.47;4800735;29;104765;-68
2023/03/05 06:31:10;;;;;;;;;4.67;4.00;;;;;-0.37;78.99;97928.25;4803933;29;102028;-67
2023/03/05 06:33:39;;;;;;;;;5.67;5.00;;;;;-0.29;78.77;97931.84;4801157;29;102462;-67
2023/03/05 06:36:09;;;;;;;;;5.00;5.00;;;;;-0.28;79.13;97930.88;4803737;29;102066;-67
2023/03/05 06:38:37;;;;;;;;;5.00;4.00;;;;;-0.26;78.27;97923.56;4800777;29;108542;-67
2023/03/05 06:41:08;;;;;;;;;12.00;6.33;;;;;-0.24;78.63;97937.53;4802861;29;102479;-67
2023/03/05 06:43:37;;;;;;;;;7.33;5.33;;;;;-0.23;78.32;97936.56;4802295;29;102536;-67
2023/03/05 06:46:15;;;;;;;;;9.00;4.00;;;;;-0.20;77.13;97932.75;4800193;29;103507;-66
2023/03/05 06:48:43;;;;;;;;;5.33;5.33;;;;;-0.16;77.67;97927.00;4800747;29;111426;-67
2023/03/05 06:51:37;;;;;;;;;12.00;11.67;;;;;-0.19;78.07;97924.66;4802461;28;102018;-68
2023/03/05 06:54:08;;;;;;;;;6.33;5.00;;;;;-0.13;77.65;97918.72;4801732;29;102450;-68
2023/03/05 06:56:36;;;;;;;;;11.67;8.00;;;;;-0.08;77.31;97915.59;4803146;29;102226;-67
2023/03/05 06:59:04;;;;;;;;;11.00;8.00;;;;;-0.11;77.44;97922.06;4801525;29;104222;-66
2023/03/05 07:01:32;;;;;;;;;10.33;8.00;;;;;0.00;78.24;97916.50;4800155;29;102673;-66
2023/03/05 07:04:01;;;;;;;;;5.00;4.67;;;;;0.08;77.84;97912.28;4801883;29;103402;-67
2023/03/05 07:06:32;;;;;;;;;9.00;7.67;;;;;0.06;77.13;97901.78;4802964;29;102471;-67
2023/03/05 07:09:02;;;;;;;;;8.67;5.67;;;;;0.16;76.99;97917.66;4802276;29;104037;-67
2023/03/05 07:11:29;;;;;;;;;8.00;6.67;;;;;0.16;77.79;97907.88;4801246;29;102168;-67
2023/03/05 07:13:56;;;;;;;;;8.00;6.00;;;;;0.22;77.34;97907.28;4800448;29;102060;-67
2023/03/05 07:16:25;;;;;;;;;12.00;11.67;;;;;0.24;77.06;97901.78;4800658;29;102700;-66
2023/03/05 07:18:54;;;;;;;;;14.33;12.00;;;;;0.30;77.00;97903.84;4801406;29;104037;-67
2023/03/05 07:21:24;;;;;;;;;20.00;17.33;;;;;0.32;77.75;97899.19;4801586;29;102236;-67
2023/03/05 07:23:57;;;;;;;;;25.00;21.00;;;;;0.33;77.67;97899.03;4801216;29;102207;-67
2023/03/05 07:26:25;;;;;;;;;15.67;13.00;;;;;0.33;78.05;97898.19;4802755;29;102084;-67
2023/03/05 07:28:53;;;;;;;;;17.00;15.33;;;;;0.38;77.87;97891.44;4800037;29;103955;-66
2023/03/05 07:31:25;;;;;;;;;13.00;8.33;;;;;0.42;77.70;97891.94;4801524;29;102388;-67
2023/03/05 07:33:53;;;;;;;;;12.00;10.00;;;;;0.43;78.09;97875.84;4800472;29;105739;-67
2023/03/05 07:36:20;;;;;;;;;17.33;15.33;;;;;0.52;78.53;97884.72;4802319;29;102025;-67
2023/03/05 07:38:47;;;;;;;;;18.33;16.67;;;;;0.58;78.28;97880.59;4801095;29;104056;-67
2023/03/05 07:41:19;;;;;;;;;21.33;16.33;;;;;0.67;78.58;97875.19;4786889;29;103680;-67
2023/03/05 07:43:48;;;;;;;;;20.00;14.33;;;;;0.78;77.81;97884.72;4797751;29;102169;-67
2023/03/05 07:46:18;;;;;;;;;12.33;11.33;;;;;0.82;78.48;97876.25;4802661;29;102188;-67
2023/03/05 07:48:45;;;;;;;;;14.33;12.33;;;;;0.88;78.11;97877.47;4800237;29;104003;-67
2023/03/05 07:51:15;;;;;;;;;14.00;13.00;;;;;0.97;78.62;97862.38;4783194;29;103205;-67
2023/03/05 07:53:44;;;;;;;;;15.67;11.33;;;;;1.01;78.57;97869.03;4800646;29;102045;-67
2023/03/05 07:56:11;;;;;;;;;12.00;10.00;;;;;1.03;78.60;97851.09;4802801;29;103012;-68
2023/03/05 07:58:38;;;;;;;;;13.33;9.67;;;;;1.13;78.41;97862.44;4803875;29;104069;-67
2023/03/05 08:01:14;;;;;;;;;12.00;9.67;;;;;1.05;78.13;97865.06;4801058;29;102204;-68
2023/03/05 08:03:42;;;;;;;;;14.33;12.33;;;;;1.00;79.70;97868.19;4796768;29;102385;-67
2023/03/05 08:06:11;;;;;;;;;12.00;9.00;;;;;1.10;79.29;97868.09;4801406;29;102320;-68
2023/03/05 08:08:38;;;;;;;;;11.33;11.33;;;;;1.10;78.94;97865.41;4800967;29;104020;-67
2023/03/05 08:11:07;;;;;;;;;10.33;9.00;;;;;1.16;79.29;97865.63;4801108;29;102240;-67
2023/03/05 08:13:35;;;;;;;;;18.00;9.00;;;;;1.23;78.60;97865.81;4800313;29;101930;-67
2023/03/05 08:16:07;;;;;;;;;12.75;9.25;;;;;1.25;78.58;97855.84;4801431;29;102499;-67
2023/03/05 08:18:34;;;;;;;;;17.67;12.33;;;;;1.28;79.49;97858.16;4799352;29;103663;-67
2023/03/05 08:21:01;;;;;;;;;21.00;17.00;;;;;1.36;79.30;97863.50;4801668;29;102583;-68
2023/03/05 08:23:29;;;;;;;;;21.67;16.00;;;;;1.42;78.47;97856.72;4798944;29;102369;-68
2023/03/05 08:25:56;;;;;;;;;22.00;20.00;;;;;1.37;79.14;97865.19;4806152;29;102000;-67
2023/03/05 08:28:23;;;;;;;;;22.33;18.33;;;;;1.35;78.63;97857.34;4799668;29;103882;-68
2023/03/05 08:30:50;;;;;;;;;28.33;21.00;;;;;1.47;79.76;97855.25;4800978;29;102243;-68
2023/03/05 08:33:20;;;;;;;;;19.33;15.67;;;;;1.46;78.96;97858.06;4804738;29;102081;-68
2023/03/05 08:35:47;;;;;;;;;35.00;23.33;;;;;1.42;78.56;97846.06;4804273;29;102008;-67
2023/03/05 08:38:14;;;;;;;;;25.67;17.00;;;;;1.42;78.64;97849.56;4802645;29;104114;-67
2023/03/05 08:40:42;;;;;;;;;22.67;19.33;;;;;1.50;79.13;97843.41;4803458;29;102451;-68
2023/03/05 08:43:09;;;;;;;;;23.67;20.33;;;;;1.60;79.00;97847.63;4805123;29;102379;-68
2023/03/05 08:45:38;;;;;;;;;17.67;14.33;;;;;1.55;78.44;97839.28;4807119;29;102321;-67
2023/03/05 08:48:05;;;;;;;;;20.00;17.00;;;;;1.55;78.67;97841.94;4804107;29;108820;-67
2023/03/05 08:50:32;;;;;;;;;23.33;17.67;;;;;1.51;78.53;97837.94;4803846;29;102587;-67
2023/03/05 08:52:59;;;;;;;;;18.00;12.67;;;;;1.53;78.46;97835.94;4802568;29;102067;-67
2023/03/05 08:55:25;;;;;;;;;21.00;13.33;;;;;1.65;78.86;97839.13;4803886;29;102640;-67
2023/03/05 08:57:52;;;;;;;;;18.00;15.00;;;;;1.69;78.89;97827.97;4801391;29;103629;-67
2023/03/05 09:00:20;;;;;;;;;16.00;12.67;;;;;1.72;78.82;97827.66;4802814;29;102536;-67
2023/03/05 09:02:47;;;;;;;;;23.67;16.00;;;;;1.71;78.30;97828.63;4801222;29;102335;-67
2023/03/05 09:05:14;;;;;;;;;33.67;26.67;;;;;1.62;79.06;97832.28;4804514;29;101992;-67
2023/03/05 09:07:42;;;;;;;;;29.00;23.00;;;;;1.59;79.53;97829.97;4802742;29;103965;-67
2023/03/05 09:10:12;;;;;;;;;25.00;21.67;;;;;1.55;80.07;97828.63;4804558;29;102026;-67
2023/03/05 09:12:39;;;;;;;;;33.00;22.00;;;;;1.62;80.68;97828.81;4786580;29;102224;-68
2023/03/05 09:15:08;;;;;;;;;29.33;24.00;;;;;1.63;81.00;97830.44;4806650;29;102312;-67
2023/03/05 09:17:36;;;;;;;;;23.33;18.67;;;;;1.70;81.08;97827.00;4802728;29;108741;-67
2023/03/05 09:20:05;;;;;;;;;16.67;15.33;;;;;1.82;80.83;97821.31;4804768;29;102945;-67
2023/03/05 09:22:32;;;;;;;;;28.25;18.25;;;;;1.88;80.14;97823.34;4812317;29;102744;-68
2023/03/05 09:24:59;;;;;;;;;29.00;24.00;;;;;1.90;80.36;97819.50;4803579;29;102364;-67
2023/03/05 09:27:26;;;;;;;;;38.00;29.00;;;;;1.92;80.94;97819.34;4801534;29;103546;-67
2023/03/05 09:29:53;;;;;;;;;26.67;23.67;;;;;1.95;80.43;97819.84;4801886;29;102279;-68
2023/03/05 09:32:20;;;;;;;;;28.00;19.00;;;;;2.00;80.23;97817.50;4801974;29;101874;-68
2023/03/05 09:34:47;;;;;;;;;24.00;13.75;;;;;2.17;80.76;97823.66;4801642;29;101986;-68
2023/03/05 09:37:14;;;;;;;;;25.33;19.00;;;;;2.30;79.91;97812.50;4807883;29;103996;-67
2023/03/05 09:39:41;;;;;;;;;28.33;21.33;;;;;2.24;79.58;97811.34;4801765;29;102056;-66
2023/03/05 09:42:27;;;;;;;;;29.00;17.75;;;;;2.37;79.40;97814.31;4805542;29;102350;-67
2023/03/05 09:45:07;;;;;;;;;23.50;19.50;;;;;2.33;79.13;97806.81;4803558;29;102073;-67
2023/03/05 09:47:52;;;;;;;;;22.50;19.00;;;;;2.40;79.29;97810.47;4801726;29;103996;-67
2023/03/05 09:50:22;;;;;;;;;17.00;14.00;;;;;2.38;78.75;97816.00;4801827;29;102193;-67
2023/03/05 09:52:56;;;;;;;;;16.50;12.25;;;;;2.33;80.42;97807.66;4803412;29;101927;-67
2023/03/05 09:55:41;;;;;;;;;23.00;16.25;;;;;1.96;80.07;97810.00;4803610;29;102256;-67
2023/03/05 09:58:30;;;;;;;;;21.75;20.50;;;;;1.93;81.39;97815.69;4798897;29;109178;-67
2023/03/05 10:01:01;;;;;;;;;20.33;17.00;;;;;1.77;82.91;97813.81;4798316;29;102387;-68
2023/03/05 10:03:48;;;;;;;;;16.00;14.50;;;;;1.82;83.59;97808.00;4802338;29;102016;-67
2023/03/05 10:06:35;;;;;;;;;19.50;17.25;;;;;1.78;83.72;97808.34;4790122;29;102110;-68
2023/03/05 10:09:20;;;;;;;;;21.75;18.25;;;;;1.60;85.47;97814.81;4798625;29;103967;-68
2023/03/05 10:11:58;;;;;;;;;23.25;19.00;;;;;1.50;86.73;97814.13;4800345;29;102060;-66
2023/03/05 10:14:43;;;;;;;;;24.75;23.25;;;;;1.33;87.48;97802.59;4802580;29;102343;-68
2023/03/05 10:17:28;;;;;;;;;15.00;10.25;;;;;1.28;88.30;97807.56;4802783;29;102257;-67
2023/03/05 10:20:04;;;;;;;;;24.67;22.67;;;;;1.21;88.48;97809.22;4800529;29;103984;-67
2023/03/05 10:23:14;;;;;;;;;36.67;32.00;;;;;0.95;90.96;97809.28;4801363;29;102205;-67
2023/03/05 10:26:19;;;;;;;;;38.33;29.67;;;;;0.87;91.26;97802.13;4763016;29;102487;-68
2023/03/05 10:28:58;;;;;;;;;35.67;30.33;;;;;0.82;92.58;97799.09;4803750;29;102339;-68
2023/03/05 10:31:35;;;;;;;;;33.67;29.33;;;;;0.79;91.95;97794.09;4801496;29;103794;-66
2023/03/05 10:35:01;;;;;;;;;36.67;30.67;;;;;0.37;92.23;97758.63;4801383;28;102972;-68
2023/03/05 10:37:43;;;;;;;;;54.33;42.33;;;;;0.19;94.00;97795.91;4745032;29;102401;-67
2023/03/05 10:40:10;;;;;;;;;42.67;32.00;;;;;0.38;93.73;97787.75;4740982;29;102570;-68
2023/03/05 10:43:01;;;;;;;;;46.00;40.33;;;;;0.49;93.70;97789.31;4779552;29;103922;-67
2023/03/05 10:45:34;;;;;;;;;47.33;32.67;;;;;0.73;93.75;97780.59;4800935;28;102332;-67
2023/03/05 10:48:23;;;;;;;;;36.00;28.33;;;;;1.00;92.18;97780.38;4787562;29;102064;-67
2023/03/05 10:51:09;;;;;;;;;31.00;27.33;;;;;1.14;89.66;97778.91;4801063;29;102422;-67
2023/03/05 10:53:50;;;;;;;;;51.00;40.67;;;;;1.02;90.59;97772.22;4801602;29;108589;-67
2023/03/05 10:56:21;;;;;;;;;37.33;34.67;;;;;1.37;89.55;97766.66;4800228;29;102141;-67
2023/03/05 10:58:50;;;;;;;;;40.00;33.67;;;;;1.35;86.95;97761.47;4803965;28;102317;-67
2023/03/05 11:01:24;;;;;;;;;38.67;34.00;;;;;1.24;85.79;97768.97;4802224;29;102049;-68
2023/03/05 11:04:00;;;;;;;;;40.67;33.00;;;;;1.00;86.66;97771.53;4801654;29;104308;-68
2023/03/05 11:06:44;;;;;;;;;38.67;33.67;;;;;0.89;87.36;97762.88;4800155;29;102277;-67
2023/03/05 11:09:18;;;;;;;;;32.00;22.00;;;;;0.87;86.86;97759.53;4801812;29;102977;-68
2023/03/05 11:12:09;;;;;;;;;34.00;27.00;;;;;0.85;88.52;97756.22;4795911;29;102034;-67
2023/03/05 11:15:01;;;;;;;;;18.67;17.67;;;;;0.99;87.06;97746.75;4799290;29;108711;-68
2023/03/05 11:17:42;;;;;;;;;37.67;30.67;;;;;0.53;87.21;97740.13;4792412;29;102338;-68
2023/03/05 11:20:30;;;;;;;;;35.00;27.00;;;;;0.51;87.95;97744.75;4798977;29;102186;-70
2023/03/05 11:23:23;;;;;;;;;28.33;24.00;;;;;0.39;86.22;97740.72;4799379;29;102152;-68
2023/03/05 11:25:50;;;;;;;;;27.00;20.67;;;;;0.58;87.91;97737.81;4795177;29;108613;-67
2023/03/05 11:28:20;;;;;;;;;29.33;21.67;;;;;0.84;86.88;97738.59;4799669;29;102043;-67
2023/03/05 11:31:01;;;;;;;;;38.33;31.67;;;;;0.88;85.84;97739.91;4798521;29;102020;-67
2023/03/05 11:33:30;;;;;;;;;30.67;26.33;;;;;0.93;86.55;97731.44;4800287;29;102005;-67
2023/03/05 11:36:11;;;;;;;;;29.00;23.67;;;;;0.81;85.01;97727.44;4801526;29;104006;-68
2023/03/05 11:38:50;;;;;;;;;34.67;24.00;;;;;0.75;85.68;97726.25;4800423;29;102029;-68